x

West Sea Otter (46204) Wave Buoy

11:00 - Sat 23rd May 2015 All times are PDT. -7 hours from GMT.

  • Sig Wave height 3.6ft
  • Peak Period 10s
  • Wind
    11mph, 16mph gusts
  • Sea Temp 53°f
  • Ar Temp 51°f
  • Sea Pressure 1023.4mb
  • West Sea Otter
  • West Sea Otter

More Historic Weather Station data

Upgrade to MSW Pro to gain access to the past 30 days of data for over 8000 Wavebouys and Weather Stations around the globe.

Join Pro

Comparision Forecast

View Surf forecast
   
Sáb 05/23 11:00 3.5ft 10s 11 16 mph 1023.4mb 53f 51f
10:00 4ft 12s 11 16 mph 1023.5mb 53f 51f
8:00 4ft 12s 13 16 mph 1022.8mb 53f 52f
6:00 4ft 9s 13 18 mph 1022.9mb 53f 52f
5:00 4.5ft 12s 11 13 mph 1023mb 53f 52f
4:00 4.5ft 12s 11 13 mph 1023.2mb 53f 52f
3:00 5ft 7s 11 13 mph 1023.4mb 53f 52f
2:00 5ft 12s 9 11 mph 1023.3mb 53f 51f
1:00 5ft 12s 9 11 mph 1023mb 53f 51f
12:00 5ft 9s 7 9 mph 1022.7mb 53f 51f
11:00 4.5ft 12s 7 9 mph 1022.5mb 53f 51f
10:00 4.5ft 10s 11 13 mph 1022.1mb 53f 51f
8:00 4.5ft 10s  -  mph 1021.3mb 53f 51f
7:00 4.5ft 10s 4
mph
1020.9mb 53f 51f
6:00 4.5ft 8s  -  2 mph 1020.6mb 53f 51f
5:00 4.5ft 6s 2
mph
1020.1mb 53f 51f
4:00 5ft 10s 2 4 mph 1019.8mb 53f 51f
3:00 4.5ft 7s  -  2 mph 1019.6mb 53f 51f
2:00 5ft 7s 4 7 mph 1019.4mb 53f 51f
1:00 4.5ft 10s 4 7 mph 1019.2mb 53f 51f
12:00 4.5ft 7s 7 9 mph 1019.1mb 52f 52f
Sex 05/22 11:00 4.5ft 10s 7 9 mph 1019mb 53f 52f
10:00 4.5ft 8s 9 11 mph 1018.4mb 53f 52f
9:00 4.5ft 10s 9 11 mph 1017.9mb 53f 52f
8:00 4.5ft 8s 11 16 mph 1017.5mb 53f 52f
7:00 4.5ft 8s 11 16 mph 1017.6mb 53f 52f
6:00 5ft 8s 11 16 mph 1017.5mb 53f 51f
5:00 5ft 8s 13 16 mph 1017.6mb 53f 51f
4:00 5ft 7s 13 18 mph 1017.4mb 53f 51f
3:00 6ft 6s 13 16 mph 1017.3mb 53f 51f
2:00 6ft 8s 13 16 mph 1017.2mb 53f 51f
1:00 6ft 7s 13 16 mph 1017.4mb 53f 51f
11:00 6ft 6s 13 18 mph 1017.1mb 53f 51f
10:00 5.5ft 8s 13 18 mph 1016.9mb 53f 52f
9:00 5.5ft 9s 16 18 mph 1016.6mb 53f 52f
8:00 5ft 6s 16 18 mph 1016.3mb 52f 52f
7:00 5ft 7s 13 16 mph 1015.8mb 52f 51f
6:00 5ft 6s 11 16 mph 1015.6mb 52f 51f
5:00 5ft 7s 16 20 mph 1015.2mb 52f 51f
4:00 5ft 5s 16 20 mph 1015.1mb 52f 52f
3:00 5ft 6s 11 13 mph 1015.2mb 53f 52f
2:00 5ft 7s 16 18 mph 1015.1mb 52f 52f
1:00 4.5ft 6s 11 13 mph 1015mb 52f 53f
12:00 5ft 10s 13
mph
1015mb 52f 53f
Qui 05/21 11:00 5ft 7s 11 13 mph 1014.9mb 52f 52f
10:00 4.5ft 9s 13 16 mph 1014.9mb 52f 52f
9:00 5ft 6s 16 20 mph 1014.6mb 52f 52f
8:00 5ft 7s 18 20 mph 1014.5mb 52f 51f
7:00 5ft 8s 18 22 mph 1014.5mb 53f 51f
6:00 5ft 6s 18 22 mph 1014.7mb 53f 51f
5:00 5.5ft 5s 18 22 mph 1014.8mb 53f 51f
4:00 6ft 6s 18 22 mph 1015.1mb 53f 51f
3:00 6ft 6s 18 22 mph 1015.1mb 53f 51f
2:00 6.5ft 7s 18 22 mph 1015.3mb 53f 51f
1:00 6ft 7s 18 22 mph 1015.5mb 53f 51f
11:00 6ft 7s 18 20 mph 1015.6mb 53f 50f
10:00 5.5ft 6s 18 20 mph 1015.5mb 53f 50f
8:00 5ft 12s 16 20 mph 1015.3mb 53f 49f
7:00 4.5ft 10s 18 20 mph 1015.2mb 53f 49f
5:00  -   -  16
mph
1015.1mb - 50f
4:00 4.5ft 11s 16 18 mph 1015.1mb 53f 50f
3:00 4.5ft 5s 16 20 mph 1015.3mb 53f 50f
2:00 5ft 6s 16 18 mph 1015.4mb 53f 50f
1:00 4.5ft 11s 16 20 mph 1015.6mb 53f 50f
12:00 5ft 5s 16 18 mph 1015.9mb 53f 50f
Qua 05/20 11:00 4.5ft 11s 13 18 mph 1016.2mb 53f 50f
10:00 4.5ft 10s 13 18 mph 1016.4mb 53f 51f
9:00 4.5ft 11s 16 20 mph 1016.3mb 53f 51f
8:00 4.5ft 11s 18 22 mph 1016.3mb 53f 51f
7:00 4.5ft 12s 18 22 mph 1016.4mb 53f 51f
6:00 4.5ft 12s 18 22 mph 1016.6mb 54f 51f
5:00 4.5ft 12s 16 20 mph 1017mb 53f 51f
4:00 4.5ft 13s 16 18 mph 1017.3mb 53f 51f
3:00 5ft 6s 13 18 mph 1017.9mb 53f 52f
2:00 5ft 6s 16 18 mph 1018.4mb 53f 51f
1:00 5ft 6s 16 20 mph 1018.8mb 53f 51f
11:00 5ft 7s 13 16 mph 1019.2mb 53f 51f
9:00 4ft 13s 13 18 mph 1019.2mb 53f 50f
8:00 4ft 13s 16 20 mph 1019.2mb 53f 50f